Time;durP1;ratioP1;P1;durP2;ratioP2;P2;SDS_P1;SDS_P2;PMS_P1;PMS_P2;Temp;Humidity;BMP_temperature;BMP_pressure;BME280_temperature;BME280_humidity;BME280_pressure;Samples;Min_cycle;Max_cycle;Signal;HPM_P1;HPM_P2
2021/09/11 00:00:15;;;;;;;10.07;6.00;;;;;;;;;;5014177;28;20100;-63
2021/09/11 00:02:40;;;;;;;6.97;5.38;;;;;;;;;;5014338;28;20033;-63
2021/09/11 00:05:06;;;;;;;8.68;5.90;;;;;;;;;;5014045;28;20021;-63
2021/09/11 00:07:32;;;;;;;10.45;5.93;;;;;;;;;;5014497;28;20022;-63
2021/09/11 00:09:57;;;;;;;9.70;5.93;;;;;;;;;;5013692;28;20488;-64
2021/09/11 00:12:22;;;;;;;10.10;6.32;;;;;;;;;;5013939;28;20377;-63
2021/09/11 00:14:47;;;;;;;8.57;5.68;;;;;;;;;;5014367;28;20017;-63
2021/09/11 00:17:13;;;;;;;8.65;6.13;;;;;;;;;;5013851;28;20381;-63
2021/09/11 00:19:38;;;;;;;9.73;6.45;;;;;;;;;;5013808;28;20020;-63
2021/09/11 00:22:03;;;;;;;8.65;6.63;;;;;;;;;;5013798;28;20064;-64
2021/09/11 00:24:28;;;;;;;10.52;6.60;;;;;;;;;;5014139;28;20014;-63
2021/09/11 00:26:55;;;;;;;11.50;6.38;;;;;;;;;;5013875;28;20026;-63
2021/09/11 00:29:20;;;;;;;12.73;6.80;;;;;;;;;;5014027;28;20447;-63
2021/09/11 00:31:45;;;;;;;9.70;6.25;;;;;;;;;;5013595;28;20064;-63
2021/09/11 00:34:11;;;;;;;10.80;6.93;;;;;;;;;;5013821;28;20017;-63
2021/09/11 00:36:36;;;;;;;13.23;6.82;;;;;;;;;;5012067;28;20037;-63
2021/09/11 00:39:01;;;;;;;14.68;7.20;;;;;;;;;;5013826;28;20065;-63
2021/09/11 00:41:26;;;;;;;9.38;7.00;;;;;;;;;;5013454;28;20129;-63
2021/09/11 00:43:52;;;;;;;10.32;7.35;;;;;;;;;;5013925;28;20030;-63
2021/09/11 00:46:17;;;;;;;9.82;6.85;;;;;;;;;;5012264;28;20038;-63
2021/09/11 00:48:42;;;;;;;14.40;7.45;;;;;;;;;;5013763;28;20029;-63
2021/09/11 00:51:07;;;;;;;11.70;7.80;;;;;;;;;;5013263;28;20029;-63
2021/09/11 00:53:33;;;;;;;12.80;7.95;;;;;;;;;;5012626;28;20018;-63
2021/09/11 00:55:58;;;;;;;12.38;8.18;;;;;;;;;;5013305;28;20034;-63
2021/09/11 00:58:23;;;;;;;13.50;8.85;;;;;;;;;;5013678;28;20409;-63
2021/09/11 01:00:48;;;;;;;12.23;8.38;;;;;;;;;;5013276;28;20491;-63
2021/09/11 01:03:14;;;;;;;12.18;8.27;;;;;;;;;;5013638;28;20080;-63
2021/09/11 01:05:39;;;;;;;13.15;8.38;;;;;;;;;;5012007;28;20048;-63
2021/09/11 01:08:04;;;;;;;12.02;9.10;;;;;;;;;;5012226;28;20022;-63
2021/09/11 01:10:29;;;;;;;13.02;9.32;;;;;;;;;;5012556;28;20087;-63
2021/09/11 01:12:55;;;;;;;16.60;9.35;;;;;;;;;;5013369;28;20028;-62
2021/09/11 01:15:29;;;;;;;13.00;8.55;;;;;;;;;;5013101;28;20395;-62
2021/09/11 01:17:55;;;;;;;12.43;8.77;;;;;;;;;;5012198;28;20417;-63
2021/09/11 01:20:20;;;;;;;15.18;8.63;;;;;;;;;;5012828;28;20042;-63
2021/09/11 01:22:45;;;;;;;12.95;9.10;;;;;;;;;;5012673;28;20033;-63
2021/09/11 01:25:10;;;;;;;13.63;9.35;;;;;;;;;;5013115;28;20018;-63
2021/09/11 01:27:36;;;;;;;13.32;9.52;;;;;;;;;;5011945;28;20025;-63
2021/09/11 01:30:02;;;;;;;15.40;9.70;;;;;;;;;;5011401;28;20041;-63
2021/09/11 01:32:28;;;;;;;19.17;10.90;;;;;;;;;;5012942;28;20048;-63
2021/09/11 01:34:53;;;;;;;17.70;9.90;;;;;;;;;;5013079;28;20030;-63
2021/09/11 01:37:19;;;;;;;15.15;10.40;;;;;;;;;;5012456;28;20438;-63
2021/09/11 01:39:48;;;;;;;17.83;10.68;;;;;;;;;;5012960;28;20044;-63
2021/09/11 01:42:16;;;;;;;18.38;10.43;;;;;;;;;;5012489;28;20038;-63
2021/09/11 01:44:48;;;;;;;20.05;10.20;;;;;;;;;;5012888;28;20036;-63
2021/09/11 01:47:13;;;;;;;15.15;9.82;;;;;;;;;;5012562;28;20484;-63
2021/09/11 01:49:39;;;;;;;17.88;10.20;;;;;;;;;;5012871;28;20041;-63
2021/09/11 01:52:04;;;;;;;12.88;9.00;;;;;;;;;;5011087;28;20471;-63
2021/09/11 01:54:29;;;;;;;16.00;10.15;;;;;;;;;;5012946;28;20487;-63
2021/09/11 01:56:54;;;;;;;15.25;10.60;;;;;;;;;;5012405;28;20072;-64
2021/09/11 01:59:20;;;;;;;18.58;10.00;;;;;;;;;;5012937;28;20472;-62
2021/09/11 02:01:45;;;;;;;16.02;10.00;;;;;;;;;;5012399;28;20061;-63
2021/09/11 02:04:10;;;;;;;16.83;9.52;;;;;;;;;;5012594;28;20088;-63
2021/09/11 02:06:35;;;;;;;14.77;9.40;;;;;;;;;;5012141;28;20038;-63
2021/09/11 02:09:00;;;;;;;15.75;9.98;;;;;;;;;;5012419;28;20058;-63
2021/09/11 02:11:26;;;;;;;16.73;10.23;;;;;;;;;;5012087;28;20034;-63
2021/09/11 02:13:51;;;;;;;12.85;9.77;;;;;;;;;;5012400;28;20030;-63
2021/09/11 02:16:16;;;;;;;15.18;10.77;;;;;;;;;;5012125;28;20034;-63
2021/09/11 02:18:41;;;;;;;16.65;10.00;;;;;;;;;;5012633;28;20038;-63
2021/09/11 02:21:06;;;;;;;12.10;9.25;;;;;;;;;;5012049;28;20026;-63
2021/09/11 02:23:32;;;;;;;11.60;9.48;;;;;;;;;;5012689;28;20512;-63
2021/09/11 02:25:57;;;;;;;11.52;9.23;;;;;;;;;;5011511;28;20499;-63
2021/09/11 02:28:22;;;;;;;13.65;9.45;;;;;;;;;;5012419;28;20061;-63
2021/09/11 02:30:47;;;;;;;11.23;8.60;;;;;;;;;;5012087;28;20041;-63
2021/09/11 02:33:13;;;;;;;11.77;8.75;;;;;;;;;;5014529;28;20399;-63
2021/09/11 02:35:38;;;;;;;14.43;9.10;;;;;;;;;;5014460;28;20091;-63
2021/09/11 02:38:03;;;;;;;12.95;9.32;;;;;;;;;;5015896;28;20113;-63
2021/09/11 02:40:28;;;;;;;14.25;9.18;;;;;;;;;;5015689;28;20108;-63
2021/09/11 02:42:53;;;;;;;14.25;8.80;;;;;;;;;;5016146;28;20349;-63
2021/09/11 02:45:19;;;;;;;14.13;8.45;;;;;;;;;;5015603;28;20030;-63
2021/09/11 02:47:44;;;;;;;10.75;8.65;;;;;;;;;;5015920;28;20018;-62
2021/09/11 02:50:09;;;;;;;14.07;8.88;;;;;;;;;;5015172;28;20014;-62
2021/09/11 02:52:34;;;;;;;12.65;8.85;;;;;;;;;;5015711;28;20061;-63
2021/09/11 02:55:00;;;;;;;14.43;8.55;;;;;;;;;;5016129;28;20106;-63
2021/09/11 02:57:25;;;;;;;15.57;9.35;;;;;;;;;;5015223;28;20053;-63
2021/09/11 02:59:50;;;;;;;13.43;9.07;;;;;;;;;;5015625;28;20518;-63
2021/09/11 03:02:15;;;;;;;13.40;8.93;;;;;;;;;;5015176;28;20029;-63
2021/09/11 03:04:40;;;;;;;19.05;9.95;;;;;;;;;;5015725;28;20420;-63
2021/09/11 03:07:06;;;;;;;13.85;9.45;;;;;;;;;;5015136;28;20439;-63
2021/09/11 03:09:31;;;;;;;14.90;9.55;;;;;;;;;;5015529;28;20049;-63
2021/09/11 03:11:56;;;;;;;11.98;9.63;;;;;;;;;;5015011;28;20030;-63
2021/09/11 03:14:21;;;;;;;13.90;9.00;;;;;;;;;;5015517;28;20022;-63
2021/09/11 03:16:47;;;;;;;15.98;9.75;;;;;;;;;;5014722;28;20476;-63
2021/09/11 03:19:12;;;;;;;14.48;9.10;;;;;;;;;;5014039;28;20053;-63
2021/09/11 03:21:37;;;;;;;17.10;9.27;;;;;;;;;;5013698;28;20021;-63
2021/09/11 03:24:02;;;;;;;15.68;9.00;;;;;;;;;;5015464;28;20048;-63
2021/09/11 03:26:28;;;;;;;14.85;9.20;;;;;;;;;;5013640;28;20396;-63
2021/09/11 03:28:53;;;;;;;15.65;9.18;;;;;;;;;;5015080;28;20045;-63
2021/09/11 03:31:18;;;;;;;11.73;8.85;;;;;;;;;;5014772;28;20093;-63
2021/09/11 03:33:43;;;;;;;13.38;8.65;;;;;;;;;;5014757;28;20060;-63
2021/09/11 03:36:09;;;;;;;13.73;8.43;;;;;;;;;;5014346;28;20029;-63
2021/09/11 03:38:34;;;;;;;19.15;8.80;;;;;;;;;;5014767;28;20522;-63
2021/09/11 03:40:59;;;;;;;15.48;9.25;;;;;;;;;;5014346;28;20022;-63
2021/09/11 03:43:24;;;;;;;14.50;9.48;;;;;;;;;;5014579;28;20029;-63
2021/09/11 03:45:49;;;;;;;14.57;9.10;;;;;;;;;;5013751;28;20477;-63
2021/09/11 03:48:15;;;;;;;14.73;9.57;;;;;;;;;;5014835;28;20106;-63
2021/09/11 03:50:40;;;;;;;14.70;9.30;;;;;;;;;;5014394;28;20164;-63
2021/09/11 03:53:05;;;;;;;15.15;9.30;;;;;;;;;;5014616;28;20087;-63
2021/09/11 03:55:30;;;;;;;15.57;9.80;;;;;;;;;;5014439;28;20041;-62
2021/09/11 03:57:56;;;;;;;14.32;9.40;;;;;;;;;;5014630;28;20108;-63
2021/09/11 04:00:21;;;;;;;14.15;10.20;;;;;;;;;;5014091;28;20026;-63
2021/09/11 04:02:46;;;;;;;14.30;10.32;;;;;;;;;;5013351;28;20022;-62
2021/09/11 04:05:11;;;;;;;17.40;10.25;;;;;;;;;;5014028;28;20018;-62
2021/09/11 04:07:37;;;;;;;17.50;9.52;;;;;;;;;;5014246;28;20024;-62
2021/09/11 04:10:02;;;;;;;14.73;10.15;;;;;;;;;;5013782;28;20081;-62
2021/09/11 04:12:27;;;;;;;16.23;10.13;;;;;;;;;;5014417;28;20022;-62
2021/09/11 04:14:52;;;;;;;17.77;9.45;;;;;;;;;;5014168;28;20112;-62
2021/09/11 04:17:17;;;;;;;14.88;9.32;;;;;;;;;;5013844;28;20117;-63
2021/09/11 04:19:43;;;;;;;17.08;10.07;;;;;;;;;;5014368;28;20042;-63
2021/09/11 04:22:08;;;;;;;12.93;9.10;;;;;;;;;;5013809;28;20084;-63
2021/09/11 04:24:33;;;;;;;16.02;10.15;;;;;;;;;;5014491;28;20425;-63
2021/09/11 04:26:58;;;;;;;14.05;9.38;;;;;;;;;;5013322;28;20052;-62
2021/09/11 04:29:24;;;;;;;12.23;9.82;;;;;;;;;;5014178;28;20029;-63
2021/09/11 04:31:49;;;;;;;15.35;9.35;;;;;;;;;;5013653;28;20034;-63
2021/09/11 04:34:14;;;;;;;19.15;9.85;;;;;;;;;;5013979;28;20032;-63
2021/09/11 04:36:39;;;;;;;12.98;9.05;;;;;;;;;;5013635;28;20064;-63
2021/09/11 04:39:04;;;;;;;15.00;9.55;;;;;;;;;;5014034;28;20064;-63
2021/09/11 04:41:30;;;;;;;15.65;10.30;;;;;;;;;;5013339;28;20038;-63
2021/09/11 04:43:55;;;;;;;14.65;10.00;;;;;;;;;;5013978;28;20026;-63
2021/09/11 04:46:20;;;;;;;17.40;10.57;;;;;;;;;;5013467;28;20038;-63
2021/09/11 04:48:45;;;;;;;17.23;10.27;;;;;;;;;;5013751;28;20022;-63
2021/09/11 04:51:10;;;;;;;20.58;10.88;;;;;;;;;;5013265;28;20030;-63
2021/09/11 04:53:36;;;;;;;14.02;9.65;;;;;;;;;;5012334;28;20026;-63
2021/09/11 04:56:01;;;;;;;16.20;10.32;;;;;;;;;;5011757;28;20105;-62
2021/09/11 04:58:26;;;;;;;15.55;9.20;;;;;;;;;;5013436;28;20026;-63
2021/09/11 05:00:51;;;;;;;15.43;10.07;;;;;;;;;;5013304;28;20030;-63
2021/09/11 05:03:17;;;;;;;13.93;9.82;;;;;;;;;;5012251;28;20026;-63
2021/09/11 05:05:42;;;;;;;16.75;10.90;;;;;;;;;;5012909;28;20087;-63
2021/09/11 05:08:07;;;;;;;11.98;9.48;;;;;;;;;;5013600;28;20022;-63
2021/09/11 05:10:33;;;;;;;18.13;10.10;;;;;;;;;;5012820;28;20038;-63
2021/09/11 05:12:58;;;;;;;17.25;10.00;;;;;;;;;;5013481;28;20010;-63
2021/09/11 05:15:25;;;;;;;19.98;10.40;;;;;;;;;;5011728;28;20030;-63
2021/09/11 05:17:50;;;;;;;16.52;10.32;;;;;;;;;;5012047;28;20357;-63
2021/09/11 05:20:16;;;;;;;21.05;10.75;;;;;;;;;;5013185;28;20025;-63
2021/09/11 05:22:41;;;;;;;18.80;11.23;;;;;;;;;;5013354;28;20080;-62
2021/09/11 05:25:07;;;;;;;19.98;9.48;;;;;;;;;;5012943;28;20100;-63
2021/09/11 05:27:32;;;;;;;16.98;10.18;;;;;;;;;;5013262;28;20089;-64
2021/09/11 05:29:57;;;;;;;18.20;9.88;;;;;;;;;;5013273;28;20022;-64
2021/09/11 05:32:23;;;;;;;14.25;9.48;;;;;;;;;;5012556;28;20108;-62
2021/09/11 05:34:48;;;;;;;16.63;10.05;;;;;;;;;;5013002;28;20028;-63
2021/09/11 05:37:13;;;;;;;19.40;11.25;;;;;;;;;;5012520;28;20065;-63
2021/09/11 05:39:38;;;;;;;19.17;10.77;;;;;;;;;;5013114;28;20449;-62
2021/09/11 05:42:04;;;;;;;14.85;9.45;;;;;;;;;;5012502;28;20080;-64
2021/09/11 05:44:29;;;;;;;14.48;9.25;;;;;;;;;;5012825;28;20081;-63
2021/09/11 05:46:54;;;;;;;13.88;8.95;;;;;;;;;;5012461;28;20041;-63
2021/09/11 05:49:19;;;;;;;13.23;9.32;;;;;;;;;;5012897;28;20021;-63
2021/09/11 05:51:45;;;;;;;13.65;9.40;;;;;;;;;;5011008;28;20091;-63
2021/09/11 05:54:10;;;;;;;22.98;10.70;;;;;;;;;;5013095;28;20014;-63
2021/09/11 05:56:35;;;;;;;16.05;9.85;;;;;;;;;;5012373;28;20056;-63
2021/09/11 05:59:00;;;;;;;15.65;9.18;;;;;;;;;;5012818;28;20097;-66
2021/09/11 06:01:25;;;;;;;17.05;9.40;;;;;;;;;;5012384;28;20064;-64
2021/09/11 06:03:51;;;;;;;22.42;10.85;;;;;;;;;;5012774;28;20018;-64
2021/09/11 06:06:16;;;;;;;20.23;10.23;;;;;;;;;;5012404;28;20030;-67
2021/09/11 06:08:41;;;;;;;13.20;5.88;;;;;;;;;;5015500;28;20046;-68
2021/09/11 06:11:08;;;;;;;8.25;5.13;;;;;;;;;;5016226;28;20084;-68
2021/09/11 06:13:33;;;;;;;19.33;6.90;;;;;;;;;;5016813;28;20453;-67
2021/09/11 06:15:58;;;;;;;11.68;7.35;;;;;;;;;;5016251;28;20030;-67
2021/09/11 06:18:23;;;;;;;12.68;6.50;;;;;;;;;;5016477;28;20037;-66
2021/09/11 06:20:48;;;;;;;14.05;7.60;;;;;;;;;;5016206;28;20370;-65
2021/09/11 06:23:14;;;;;;;17.05;6.88;;;;;;;;;;5016768;28;20531;-66
2021/09/11 06:25:39;;;;;;;13.75;6.30;;;;;;;;;;5015776;28;20488;-66
2021/09/11 06:28:04;;;;;;;11.68;6.47;;;;;;;;;;5016685;28;20452;-66
2021/09/11 06:30:29;;;;;;;13.30;6.40;;;;;;;;;;5016159;28;20030;-66
2021/09/11 06:32:55;;;;;;;9.88;6.13;;;;;;;;;;5016524;28;20029;-66
2021/09/11 06:35:20;;;;;;;10.32;6.38;;;;;;;;;;5015758;28;20037;-66
2021/09/11 06:37:45;;;;;;;10.25;6.30;;;;;;;;;;5015174;28;20109;-66
2021/09/11 06:40:11;;;;;;;10.85;6.20;;;;;;;;;;5015829;28;20346;-66
2021/09/11 06:42:36;;;;;;;10.95;5.90;;;;;;;;;;5016273;28;20014;-66
2021/09/11 06:45:01;;;;;;;10.32;5.78;;;;;;;;;;5015725;28;20022;-65
2021/09/11 06:47:26;;;;;;;13.80;5.88;;;;;;;;;;5016108;28;20022;-66
2021/09/11 06:49:51;;;;;;;9.27;5.43;;;;;;;;;;5016020;28;20029;-66
2021/09/11 06:52:17;;;;;;;9.43;4.88;;;;;;;;;;5015511;28;20034;-67
2021/09/11 06:54:42;;;;;;;11.57;5.85;;;;;;;;;;5016211;28;20045;-66
2021/09/11 06:57:07;;;;;;;13.63;5.75;;;;;;;;;;5015457;28;20069;-66
2021/09/11 06:59:32;;;;;;;8.50;5.00;;;;;;;;;;5015955;28;20369;-66
2021/09/11 07:01:58;;;;;;;11.63;5.70;;;;;;;;;;5015440;28;20037;-66
2021/09/11 07:04:23;;;;;;;8.75;5.45;;;;;;;;;;5015705;28;20021;-66
2021/09/11 07:06:48;;;;;;;7.45;4.90;;;;;;;;;;5015390;28;20034;-66
2021/09/11 07:09:13;;;;;;;7.28;4.63;;;;;;;;;;5015427;28;20046;-66
2021/09/11 07:11:39;;;;;;;11.32;5.60;;;;;;;;;;5015309;28;20049;-66
2021/09/11 07:14:04;;;;;;;12.65;5.07;;;;;;;;;;5015521;28;20037;-66
2021/09/11 07:16:29;;;;;;;10.25;5.47;;;;;;;;;;5013750;28;20039;-66
2021/09/11 07:18:54;;;;;;;10.93;5.75;;;;;;;;;;5012600;28;20026;-66
2021/09/11 07:21:19;;;;;;;11.07;5.50;;;;;;;;;;5014764;28;20216;-65
2021/09/11 07:23:45;;;;;;;8.60;5.07;;;;;;;;;;5014146;28;20022;-66
2021/09/11 07:26:12;;;;;;;8.23;5.03;;;;;;;;;;5014257;28;20121;-65
2021/09/11 07:28:37;;;;;;;11.07;4.93;;;;;;;;;;5014666;28;20072;-66
2021/09/11 07:31:02;;;;;;;8.02;4.75;;;;;;;;;;5014280;28;20422;-65
2021/09/11 07:33:27;;;;;;;12.65;5.45;;;;;;;;;;5014578;28;20018;-66
2021/09/11 07:35:52;;;;;;;8.57;4.82;;;;;;;;;;5014069;28;20388;-65
2021/09/11 07:38:18;;;;;;;9.85;4.65;;;;;;;;;;5014642;28;20112;-65
2021/09/11 07:40:43;;;;;;;7.72;4.93;;;;;;;;;;5014347;28;20037;-65
2021/09/11 07:43:09;;;;;;;11.23;4.20;;;;;;;;;;5014217;28;20010;-65
2021/09/11 07:45:35;;;;;;;9.00;4.00;;;;;;;;;;5014159;28;20026;-65
2021/09/11 07:48:01;;;;;;;8.45;4.00;;;;;;;;;;5014820;28;20427;-66
2021/09/11 07:50:28;;;;;;;6.53;4.57;;;;;;;;;;5014379;28;20025;-65
2021/09/11 07:52:53;;;;;;;6.97;3.65;;;;;;;;;;5014723;28;20381;-65
2021/09/11 07:55:18;;;;;;;7.55;3.40;;;;;;;;;;5014483;28;20022;-65
2021/09/11 07:57:44;;;;;;;7.53;3.55;;;;;;;;;;5014505;28;20480;-65
2021/09/11 08:00:09;;;;;;;6.00;3.40;;;;;;;;;;5013616;28;20026;-65
2021/09/11 08:02:35;;;;;;;6.68;3.40;;;;;;;;;;5014562;28;20018;-65
2021/09/11 08:05:00;;;;;;;6.70;3.22;;;;;;;;;;5014102;28;20014;-65
2021/09/11 08:07:27;;;;;;;6.27;3.33;;;;;;;;;;5014211;28;20049;-65
2021/09/11 08:09:53;;;;;;;6.97;3.30;;;;;;;;;;5014441;28;20695;-65
2021/09/11 08:12:18;;;;;;;5.93;3.50;;;;;;;;;;5014015;28;20046;-66
2021/09/11 08:14:43;;;;;;;7.38;3.53;;;;;;;;;;5014417;28;20075;-66
2021/09/11 08:17:09;;;;;;;5.97;3.53;;;;;;;;;;5013790;28;20121;-65
2021/09/11 08:19:34;;;;;;;5.15;3.20;;;;;;;;;;4996229;28;20061;-66
2021/09/11 08:21:59;;;;;;;9.45;3.50;;;;;;;;;;5013476;28;20025;-65
2021/09/11 08:24:24;;;;;;;7.93;3.42;;;;;;;;;;5014171;28;20487;-66
2021/09/11 08:26:49;;;;;;;9.70;3.57;;;;;;;;;;5013736;28;20187;-65
2021/09/11 08:29:15;;;;;;;6.78;3.47;;;;;;;;;;5014384;28;20678;-66
2021/09/11 08:31:40;;;;;;;6.20;3.20;;;;;;;;;;5013594;28;20095;-65
2021/09/11 08:34:05;;;;;;;8.07;3.60;;;;;;;;;;5013998;28;20078;-66
2021/09/11 08:36:31;;;;;;;7.30;3.42;;;;;;;;;;5013608;28;20030;-65
2021/09/11 08:38:56;;;;;;;7.70;3.72;;;;;;;;;;5014236;28;20439;-65
2021/09/11 08:41:21;;;;;;;5.75;3.63;;;;;;;;;;5013607;28;20045;-66
2021/09/11 08:43:46;;;;;;;9.07;3.60;;;;;;;;;;5013990;28;20022;-66
2021/09/11 08:46:12;;;;;;;6.38;3.92;;;;;;;;;;5013559;28;20117;-66
2021/09/11 08:48:37;;;;;;;6.55;3.67;;;;;;;;;;5013807;28;20021;-65
2021/09/11 08:51:02;;;;;;;6.47;3.58;;;;;;;;;;5013598;28;20055;-66
2021/09/11 08:53:27;;;;;;;6.93;3.40;;;;;;;;;;5014254;28;20393;-65
2021/09/11 08:55:53;;;;;;;8.50;4.13;;;;;;;;;;5013488;28;20448;-65
2021/09/11 08:58:19;;;;;;;7.70;3.55;;;;;;;;;;5013833;28;20464;-65
2021/09/11 09:00:48;;;;;;;6.80;3.45;;;;;;;;;;5013298;28;20408;-65
2021/09/11 09:03:23;;;;;;;7.53;3.17;;;;;;;;;;5013594;28;20022;-66
2021/09/11 09:05:49;;;;;;;5.32;3.28;;;;;;;;;;5013246;28;20030;-66
2021/09/11 09:08:14;;;;;;;5.07;3.10;;;;;;;;;;5013662;28;20021;-66
2021/09/11 09:10:39;;;;;;;7.00;3.17;;;;;;;;;;5013391;28;20520;-65
2021/09/11 09:13:05;;;;;;;5.07;3.13;;;;;;;;;;5013569;28;20577;-65
2021/09/11 09:15:31;;;;;;;6.53;3.38;;;;;;;;;;5012852;28;20329;-65
2021/09/11 09:17:59;;;;;;;8.68;3.33;;;;;;;;;;5013164;28;20045;-65
2021/09/11 09:20:26;;;;;;;4.25;3.15;;;;;;;;;;5013150;28;20030;-65
2021/09/11 09:23:08;;;;;;;4.82;3.30;;;;;;;;;;5013487;28;20372;-65
2021/09/11 09:25:34;;;;;;;7.03;3.53;;;;;;;;;;5012876;28;20033;-65
2021/09/11 09:28:00;;;;;;;5.30;3.10;;;;;;;;;;5013195;28;20025;-66
2021/09/11 09:30:52;;;;;;;7.15;3.30;;;;;;;;;;5012783;28;20101;-65
2021/09/11 09:33:19;;;;;;;7.25;3.60;;;;;;;;;;5011130;28;20431;-65
2021/09/11 09:35:44;;;;;;;5.45;2.92;;;;;;;;;;5011471;28;20034;-65
2021/09/11 09:38:09;;;;;;;5.68;3.25;;;;;;;;;;5013022;28;20045;-65
2021/09/11 09:40:36;;;;;;;5.63;2.97;;;;;;;;;;5011382;28;20053;-65
2021/09/11 09:43:01;;;;;;;6.15;3.30;;;;;;;;;;5012329;28;20065;-65
2021/09/11 09:45:27;;;;;;;6.57;3.45;;;;;;;;;;5012869;28;20065;-65
2021/09/11 09:48:18;;;;;;;5.05;3.10;;;;;;;;;;5012922;28;20022;-65
2021/09/11 09:50:43;;;;;;;9.48;3.70;;;;;;;;;;5010549;28;20507;-65
2021/09/11 09:53:09;;;;;;;6.65;3.47;;;;;;;;;;5012740;28;20017;-65
2021/09/11 09:55:36;;;;;;;6.15;3.60;;;;;;;;;;5011264;28;20041;-64
2021/09/11 09:58:01;;;;;;;5.47;3.60;;;;;;;;;;5011796;28;20105;-64
2021/09/11 10:00:27;;;;;;;7.38;3.53;;;;;;;;;;5011112;28;20026;-64
2021/09/11 10:02:52;;;;;;;6.68;3.75;;;;;;;;;;5013025;28;20022;-64
2021/09/11 10:05:18;;;;;;;7.82;3.63;;;;;;;;;;5012095;28;20404;-64
2021/09/11 10:07:58;;;;;;;7.03;3.50;;;;;;;;;;5011555;28;20022;-64
2021/09/11 10:10:33;;;;;;;6.15;3.45;;;;;;;;;;5012238;28;20049;-64
2021/09/11 10:13:08;;;;;;;6.40;3.65;;;;;;;;;;5012819;28;20026;-64
2021/09/11 10:15:35;;;;;;;5.18;3.67;;;;;;;;;;5012388;28;20337;-64
2021/09/11 10:18:00;;;;;;;7.35;3.50;;;;;;;;;;5012767;28;20033;-64
2021/09/11 10:20:25;;;;;;;6.80;3.50;;;;;;;;;;5012217;28;20038;-64
2021/09/11 10:23:07;;;;;;;8.48;3.38;;;;;;;;;;5012885;28;20014;-64
2021/09/11 10:25:50;;;;;;;6.60;3.28;;;;;;;;;;5010491;28;20026;-65
2021/09/11 10:28:16;;;;;;;8.77;3.47;;;;;;;;;;5012628;28;20030;-65
2021/09/11 10:31:00;;;;;;;5.80;2.80;;;;;;;;;;5012002;28;20049;-64
2021/09/11 10:33:44;;;;;;;5.47;3.00;;;;;;;;;;5012786;28;20037;-64
2021/09/11 10:36:11;;;;;;;6.63;2.90;;;;;;;;;;5012131;28;20030;-64
2021/09/11 10:38:37;;;;;;;3.65;2.70;;;;;;;;;;5012340;28;20046;-64
2021/09/11 10:41:06;;;;;;;6.45;3.20;;;;;;;;;;5011984;28;20113;-65
2021/09/11 10:43:32;;;;;;;4.00;3.05;;;;;;;;;;5011131;28;20022;-65
2021/09/11 10:46:15;;;;;;;5.72;3.10;;;;;;;;;;5012144;28;20058;-65
2021/09/11 10:48:44;;;;;;;6.05;3.15;;;;;;;;;;5012441;28;20461;-65
2021/09/11 10:51:13;;;;;;;6.03;3.00;;;;;;;;;;5011837;28;20378;-65
2021/09/11 10:53:38;;;;;;;4.43;3.05;;;;;;;;;;5013485;28;20372;-65
2021/09/11 10:56:23;;;;;;;5.10;3.38;;;;;;;;;;5015591;28;20083;-64
2021/09/11 10:59:08;;;;;;;4.03;2.75;;;;;;;;;;5015643;28;20037;-64
2021/09/11 11:01:52;;;;;;;6.65;3.03;;;;;;;;;;5015143;28;20408;-64
2021/09/11 11:04:24;;;;;;;7.32;3.10;;;;;;;;;;5015422;28;20030;-64
2021/09/11 11:06:51;;;;;;;6.15;3.00;;;;;;;;;;5015026;28;20041;-64
2021/09/11 11:09:18;;;;;;;5.07;2.95;;;;;;;;;;5015125;28;20460;-64
2021/09/11 11:11:43;;;;;;;5.35;2.80;;;;;;;;;;5015135;28;20128;-64
2021/09/11 11:14:09;;;;;;;4.93;2.88;;;;;;;;;;5015373;28;20503;-64
2021/09/11 11:16:47;;;;;;;8.18;2.90;;;;;;;;;;5014707;28;20392;-64
2021/09/11 11:19:22;;;;;;;5.68;3.00;;;;;;;;;;5015283;28;20076;-64
2021/09/11 11:21:51;;;;;;;5.75;2.67;;;;;;;;;;5015004;28;20340;-64
2021/09/11 11:24:16;;;;;;;4.40;3.03;;;;;;;;;;5015393;28;20022;-64
2021/09/11 11:26:41;;;;;;;6.40;2.85;;;;;;;;;;5014914;28;20628;-64
2021/09/11 11:29:07;;;;;;;5.22;3.03;;;;;;;;;;5015122;28;20025;-64
2021/09/11 11:31:40;;;;;;;5.65;2.92;;;;;;;;;;5014789;28;20030;-64
2021/09/11 11:34:05;;;;;;;5.53;2.90;;;;;;;;;;5015100;28;20464;-64
2021/09/11 11:36:30;;;;;;;6.22;2.65;;;;;;;;;;5014427;28;20030;-64
2021/09/11 11:38:56;;;;;;;6.45;2.65;;;;;;;;;;5014830;28;20044;-64
2021/09/11 11:41:23;;;;;;;4.25;2.80;;;;;;;;;;5014394;28;20030;-64
2021/09/11 11:43:48;;;;;;;4.05;2.35;;;;;;;;;;5014683;28;20025;-64
2021/09/11 11:46:15;;;;;;;5.28;2.58;;;;;;;;;;5014516;28;20041;-64
2021/09/11 11:48:40;;;;;;;10.60;2.75;;;;;;;;;;5014611;28;20367;-64
2021/09/11 11:51:10;;;;;;;12.48;3.03;;;;;;;;;;5013050;28;20034;-64
2021/09/11 11:53:36;;;;;;;6.30;3.03;;;;;;;;;;5014859;28;20129;-65
2021/09/11 11:56:01;;;;;;;7.10;2.70;;;;;;;;;;5014251;28;20077;-65
2021/09/11 11:58:31;;;;;;;7.15;2.70;;;;;;;;;;5014588;28;20120;-64
2021/09/11 12:00:57;;;;;;;4.93;2.67;;;;;;;;;;5014366;28;20083;-65
2021/09/11 12:03:37;;;;;;;5.82;2.47;;;;;;;;;;5015007;28;20096;-65
2021/09/11 12:06:07;;;;;;;4.60;2.55;;;;;;;;;;5013636;28;20030;-65
2021/09/11 12:08:42;;;;;;;5.70;2.50;;;;;;;;;;5013139;28;20022;-65
2021/09/11 12:11:14;;;;;;;5.90;2.53;;;;;;;;;;5014216;28;20480;-65
2021/09/11 12:13:39;;;;;;;5.53;2.67;;;;;;;;;;5014642;28;20041;-65
2021/09/11 12:16:05;;;;;;;4.88;2.50;;;;;;;;;;5012301;28;20030;-65
2021/09/11 12:18:34;;;;;;;7.30;2.58;;;;;;;;;;5013136;28;20030;-65
2021/09/11 12:20:59;;;;;;;11.68;2.85;;;;;;;;;;5013881;28;20603;-65
2021/09/11 12:23:28;;;;;;;4.03;2.40;;;;;;;;;;5012820;28;20451;-65
2021/09/11 12:26:00;;;;;;;4.45;2.40;;;;;;;;;;5013568;28;20026;-65
2021/09/11 12:28:32;;;;;;;5.30;2.50;;;;;;;;;;5014154;28;20487;-65
2021/09/11 12:30:57;;;;;;;6.72;2.50;;;;;;;;;;5013775;28;20037;-65
2021/09/11 12:33:23;;;;;;;5.30;2.45;;;;;;;;;;5014169;28;20025;-65
2021/09/11 12:35:48;;;;;;;4.07;2.40;;;;;;;;;;5012395;28;20444;-65
2021/09/11 12:38:13;;;;;;;3.53;2.20;;;;;;;;;;5014020;28;20030;-65
2021/09/11 12:40:38;;;;;;;5.82;2.40;;;;;;;;;;5013675;28;20080;-64
2021/09/11 12:43:04;;;;;;;3.83;2.30;;;;;;;;;;5014065;28;20072;-65
2021/09/11 12:45:29;;;;;;;3.55;2.30;;;;;;;;;;5013580;28;20029;-65
2021/09/11 12:47:54;;;;;;;5.22;2.42;;;;;;;;;;5014052;28;20021;-65
2021/09/11 12:50:21;;;;;;;7.80;2.40;;;;;;;;;;5013579;28;22331;-66
2021/09/11 12:52:46;;;;;;;16.60;2.75;;;;;;;;;;5013899;28;20025;-65
2021/09/11 12:55:11;;;;;;;8.23;2.33;;;;;;;;;;5013270;28;20033;-65
2021/09/11 12:57:37;;;;;;;7.13;2.50;;;;;;;;;;5013712;28;20298;-65
2021/09/11 13:00:02;;;;;;;5.38;2.20;;;;;;;;;;5013257;28;20025;-65
2021/09/11 13:02:27;;;;;;;4.68;2.40;;;;;;;;;;5013579;28;20044;-65
2021/09/11 13:04:55;;;;;;;6.93;4.25;;;;;;;;;;5013585;28;20025;-65
2021/09/11 13:07:20;;;;;;;5.75;2.97;;;;;;;;;;5013126;28;20489;-65
2021/09/11 13:09:46;;;;;;;8.55;2.80;;;;;;;;;;5013435;28;20053;-65
2021/09/11 13:12:11;;;;;;;5.15;2.60;;;;;;;;;;5012972;28;20037;-65
2021/09/11 13:14:36;;;;;;;7.07;3.00;;;;;;;;;;5013508;28;20029;-65
2021/09/11 13:17:01;;;;;;;5.85;2.90;;;;;;;;;;5012015;28;20042;-65
2021/09/11 13:19:27;;;;;;;16.10;3.40;;;;;;;;;;5013266;28;20022;-65
2021/09/11 13:21:52;;;;;;;7.93;2.80;;;;;;;;;;5012779;28;20045;-66
2021/09/11 13:24:17;;;;;;;7.32;2.67;;;;;;;;;;5013275;28;20018;-65
2021/09/11 13:26:42;;;;;;;6.55;3.92;;;;;;;;;;5012806;28;20056;-65
2021/09/11 13:29:08;;;;;;;5.85;2.67;;;;;;;;;;5013108;28;20045;-65
2021/09/11 13:31:33;;;;;;;6.60;2.58;;;;;;;;;;5012695;28;20038;-66
2021/09/11 13:33:58;;;;;;;7.97;2.58;;;;;;;;;;5013074;28;20022;-65
2021/09/11 13:36:24;;;;;;;4.55;3.03;;;;;;;;;;5012730;28;20038;-66
2021/09/11 13:38:50;;;;;;;6.75;2.55;;;;;;;;;;5013115;28;20072;-67
2021/09/11 13:41:15;;;;;;;6.82;2.65;;;;;;;;;;5012699;28;20036;-66
2021/09/11 13:43:41;;;;;;;7.50;2.80;;;;;;;;;;5013015;28;20376;-67
2021/09/11 13:46:06;;;;;;;7.35;5.13;;;;;;;;;;5012496;28;20384;-65
2021/09/11 13:48:31;;;;;;;7.22;3.50;;;;;;;;;;5012876;28;20026;-65
2021/09/11 13:50:57;;;;;;;4.93;2.92;;;;;;;;;;5012793;28;20444;-66
2021/09/11 13:53:23;;;;;;;7.88;3.95;;;;;;;;;;5012899;28;20409;-65
2021/09/11 13:55:51;;;;;;;5.45;3.00;;;;;;;;;;5012694;28;20046;-65
2021/09/11 13:58:17;;;;;;;6.70;3.27;;;;;;;;;;5012862;28;20563;-65
2021/09/11 14:00:42;;;;;;;11.73;3.33;;;;;;;;;;5012602;28;20295;-66
2021/09/11 14:03:07;;;;;;;5.90;3.20;;;;;;;;;;5012866;28;20457;-65
2021/09/11 14:05:32;;;;;;;5.25;2.75;;;;;;;;;;5012758;28;20342;-65
2021/09/11 14:07:58;;;;;;;5.10;2.60;;;;;;;;;;5013106;28;20024;-65
2021/09/11 14:10:23;;;;;;;4.32;2.65;;;;;;;;;;5012338;28;20136;-65
2021/09/11 14:12:48;;;;;;;10.27;2.65;;;;;;;;;;5012830;28;20034;-65
2021/09/11 14:15:19;;;;;;;5.07;2.53;;;;;;;;;;5012468;28;20457;-65
2021/09/11 14:17:44;;;;;;;5.25;2.70;;;;;;;;;;5012168;28;20034;-65
2021/09/11 14:20:10;;;;;;;5.93;2.83;;;;;;;;;;5012595;28;20077;-65
2021/09/11 14:22:35;;;;;;;5.20;2.53;;;;;;;;;;5012794;28;20014;-65
2021/09/11 14:25:00;;;;;;;5.78;2.80;;;;;;;;;;5011043;28;20369;-65
2021/09/11 14:27:25;;;;;;;4.88;2.30;;;;;;;;;;5011621;28;20088;-65
2021/09/11 14:29:52;;;;;;;4.97;2.50;;;;;;;;;;5014977;28;20020;-65